createdAt,value
2023-05-13T00:02:25.521Z,6.99
2023-05-13T00:05:10.970Z,6.83
2023-05-13T00:07:56.511Z,6.70
2023-05-13T00:10:42.273Z,6.64
2023-05-13T00:13:27.554Z,6.50
2023-05-13T00:16:12.868Z,6.47
2023-05-13T00:18:58.491Z,6.62
2023-05-13T00:21:43.778Z,6.60
2023-05-13T00:24:29.562Z,6.57
2023-05-13T00:27:14.892Z,6.55
2023-05-13T00:30:00.498Z,6.75
2023-05-13T00:32:46.149Z,6.78
2023-05-13T00:35:31.400Z,6.75
2023-05-13T00:38:17.833Z,6.63
2023-05-13T00:41:03.943Z,6.51
2023-05-13T00:43:49.432Z,6.48
2023-05-13T00:46:35.207Z,6.43
2023-05-13T00:49:20.898Z,6.32
2023-05-13T00:52:07.166Z,6.15
2023-05-13T00:54:52.830Z,6.08
2023-05-13T00:57:40.398Z,6.07
2023-05-13T01:00:26.229Z,6.05
2023-05-13T01:03:35.061Z,6.02
2023-05-13T01:06:35.919Z,6.17
2023-05-13T01:09:24.313Z,6.23
2023-05-13T01:12:19.334Z,6.20
2023-05-13T01:15:08.724Z,6.09
2023-05-13T01:17:54.496Z,6.14
2023-05-13T01:20:42.837Z,6.29
2023-05-13T01:23:28.191Z,6.28
2023-05-13T01:26:13.626Z,6.17
2023-05-13T01:28:59.151Z,6.14
2023-05-13T01:31:46.807Z,5.99
2023-05-13T01:34:34.668Z,5.90
2023-05-13T01:37:21.172Z,5.82
2023-05-13T01:40:20.364Z,5.78
2023-05-13T01:43:11.371Z,5.66
2023-05-13T01:46:00.533Z,5.62
2023-05-13T01:48:46.144Z,5.65
2023-05-13T01:51:32.381Z,5.72
2023-05-13T01:54:17.960Z,5.66
2023-05-13T01:57:08.853Z,5.52
2023-05-13T01:59:54.558Z,5.43
2023-05-13T02:02:39.925Z,5.36
2023-05-13T02:05:25.776Z,5.47
2023-05-13T02:08:12.089Z,5.50
2023-05-13T02:10:58.833Z,5.78
2023-05-13T02:13:46.736Z,6.04
2023-05-13T02:16:32.416Z,6.02
2023-05-13T02:19:19.742Z,5.83
2023-05-13T02:22:07.412Z,5.70
2023-05-13T02:24:53.362Z,5.64
2023-05-13T02:27:38.882Z,5.53
2023-05-13T02:30:27.058Z,5.38
2023-05-13T02:33:12.987Z,5.32
2023-05-13T02:35:58.357Z,5.37
2023-05-13T02:38:44.054Z,5.35
2023-05-13T02:41:31.549Z,5.36
2023-05-13T02:44:17.018Z,5.49
2023-05-13T02:47:03.315Z,5.68
2023-05-13T02:49:48.823Z,5.72
2023-05-13T02:52:39.077Z,5.73
2023-05-13T02:55:25.281Z,5.70
2023-05-13T02:58:10.785Z,5.62
2023-05-13T03:00:56.389Z,5.49
2023-05-13T03:03:43.141Z,5.51
2023-05-13T03:06:29.000Z,5.56
2023-05-13T03:09:14.395Z,5.65
2023-05-13T03:11:59.830Z,5.61
2023-05-13T03:14:46.184Z,5.57
2023-05-13T03:17:33.599Z,5.50
2023-05-13T03:20:19.135Z,5.44
2023-05-13T03:23:05.457Z,5.74
2023-05-13T03:25:52.219Z,5.83
2023-05-13T03:28:38.019Z,6.03
2023-05-13T03:31:23.661Z,6.34
2023-05-13T03:34:09.100Z,6.47
2023-05-13T03:36:54.586Z,6.78
2023-05-13T03:39:40.479Z,6.94
2023-05-13T03:42:26.553Z,7.14
2023-05-13T03:45:14.165Z,7.36
2023-05-13T03:48:08.115Z,7.50
2023-05-13T03:50:54.040Z,7.54
2023-05-13T03:53:40.868Z,7.54
2023-05-13T03:56:26.600Z,7.65
2023-05-13T03:59:11.844Z,7.81
2023-05-13T04:01:57.373Z,7.95
2023-05-13T04:04:43.224Z,8.00
2023-05-13T04:07:28.503Z,8.08
2023-05-13T04:10:18.026Z,8.13
2023-05-13T04:13:04.273Z,8.18
2023-05-13T04:15:49.855Z,8.22
2023-05-13T04:18:35.579Z,8.27
2023-05-13T04:21:20.873Z,8.32
2023-05-13T04:24:07.371Z,8.33
2023-05-13T04:26:53.002Z,8.34
2023-05-13T04:29:38.826Z,8.32
2023-05-13T04:32:24.285Z,8.31
2023-05-13T04:35:12.698Z,8.28
2023-05-13T04:37:59.246Z,8.25
2023-05-13T04:40:45.162Z,8.23
2023-05-13T04:43:34.202Z,8.18
2023-05-13T04:46:21.219Z,8.22
2023-05-13T04:49:09.464Z,8.22
2023-05-13T04:51:56.345Z,8.21
2023-05-13T04:54:42.835Z,8.23
2023-05-13T04:57:29.384Z,8.25
2023-05-13T05:00:15.981Z,8.29
2023-05-13T05:03:03.517Z,8.30
2023-05-13T05:05:49.262Z,8.32
2023-05-13T05:08:35.669Z,8.32
2023-05-13T05:11:20.968Z,8.34
2023-05-13T05:14:06.312Z,8.39
2023-05-13T05:16:52.391Z,8.41
2023-05-13T05:19:38.055Z,8.41
2023-05-13T05:22:23.935Z,8.38
2023-05-13T05:25:10.929Z,8.35
2023-05-13T05:27:57.267Z,8.35
2023-05-13T05:30:43.431Z,8.32
2023-05-13T05:33:35.481Z,8.31
2023-05-13T05:36:21.264Z,8.33
2023-05-13T05:39:06.693Z,8.37
2023-05-13T05:41:54.704Z,8.38
2023-05-13T05:44:40.394Z,8.36
2023-05-13T05:47:26.216Z,8.30
2023-05-13T05:50:12.070Z,8.30
2023-05-13T05:52:57.732Z,8.39
2023-05-13T05:55:43.428Z,8.48
2023-05-13T05:58:28.888Z,8.56
2023-05-13T06:01:15.047Z,8.56
2023-05-13T06:04:00.464Z,8.59
2023-05-13T06:06:45.883Z,8.62
2023-05-13T06:09:31.734Z,8.59
2023-05-13T06:12:16.870Z,8.57
2023-05-13T06:15:02.429Z,8.66
2023-05-13T06:17:47.771Z,8.78
2023-05-13T06:20:33.275Z,8.88
2023-05-13T06:23:18.932Z,8.93
2023-05-13T06:26:04.284Z,8.93
2023-05-13T06:28:49.699Z,8.88
2023-05-13T06:31:35.224Z,8.88
2023-05-13T06:34:21.021Z,8.93
2023-05-13T06:37:06.380Z,8.95
2023-05-13T06:39:51.716Z,8.95
2023-05-13T06:42:40.636Z,8.96
2023-05-13T06:45:33.437Z,9.02
2023-05-13T06:48:19.444Z,9.06
2023-05-13T06:51:05.298Z,9.14
2023-05-13T06:53:50.637Z,9.28
2023-05-13T06:56:36.026Z,9.42
2023-05-13T06:59:22.599Z,9.54
2023-05-13T07:02:09.956Z,9.64
2023-05-13T07:04:55.598Z,9.74
2023-05-13T07:07:41.117Z,9.83
2023-05-13T07:10:26.477Z,9.90
2023-05-13T07:13:11.837Z,9.96
2023-05-13T07:15:57.637Z,10.09
2023-05-13T07:18:43.165Z,10.18
2023-05-13T07:21:30.120Z,10.27
2023-05-13T07:24:15.927Z,10.33
2023-05-13T07:27:01.563Z,10.38
2023-05-13T07:29:46.861Z,10.43
2023-05-13T07:32:32.377Z,10.51
2023-05-13T07:35:18.006Z,10.60
2023-05-13T07:38:04.527Z,10.72
2023-05-13T07:40:50.193Z,10.82
2023-05-13T07:43:35.773Z,10.84
2023-05-13T07:46:21.366Z,10.91
2023-05-13T07:49:08.839Z,10.84
2023-05-13T07:51:54.583Z,10.81
2023-05-13T07:54:40.009Z,10.86
2023-05-13T07:57:25.587Z,10.95
2023-05-13T08:00:11.649Z,11.01
2023-05-13T08:03:00.641Z,11.09
2023-05-13T08:05:48.123Z,11.08
2023-05-13T08:08:33.702Z,11.22
2023-05-13T08:11:19.140Z,11.28
2023-05-13T08:14:05.859Z,11.35
2023-05-13T08:16:51.575Z,11.40
2023-05-13T08:19:37.733Z,11.47
2023-05-13T08:22:23.279Z,11.61
2023-05-13T08:25:11.280Z,11.73
2023-05-13T08:27:57.732Z,11.83
2023-05-13T08:30:44.467Z,11.86
2023-05-13T08:33:30.623Z,11.91
2023-05-13T08:36:17.151Z,11.97
2023-05-13T08:39:02.305Z,12.06
2023-05-13T08:41:52.105Z,12.16
2023-05-13T08:44:42.752Z,12.15
2023-05-13T08:47:46.564Z,12.14
2023-05-13T08:50:32.357Z,12.17
2023-05-13T08:53:18.902Z,12.21
2023-05-13T08:56:06.535Z,12.29
2023-05-13T08:58:51.776Z,12.32
2023-05-13T09:01:38.550Z,12.45
2023-05-13T09:04:25.457Z,12.55
2023-05-13T09:07:11.680Z,12.62
2023-05-13T09:09:57.922Z,12.64
2023-05-13T09:12:54.429Z,12.75
2023-05-13T09:15:43.392Z,12.82
2023-05-13T09:18:32.454Z,12.84
2023-05-13T09:21:30.757Z,12.92
2023-05-13T09:24:21.623Z,13.00
2023-05-13T09:27:07.251Z,13.06
2023-05-13T09:30:01.791Z,13.12
2023-05-13T09:33:15.065Z,13.07
2023-05-13T09:36:04.293Z,13.09
2023-05-13T09:38:54.212Z,13.21
2023-05-13T09:41:39.584Z,13.41
2023-05-13T09:44:25.057Z,13.58
2023-05-13T09:47:17.912Z,13.68
2023-05-13T09:50:04.644Z,13.78
2023-05-13T09:52:50.255Z,13.86
2023-05-13T09:55:35.642Z,13.89
2023-05-13T09:58:22.202Z,13.82
2023-05-13T10:01:07.948Z,13.85
2023-05-13T10:03:55.982Z,14.05
2023-05-13T10:06:41.581Z,14.25
2023-05-13T10:09:31.315Z,14.29
2023-05-13T10:12:20.070Z,14.39
2023-05-13T10:15:06.362Z,14.48
2023-05-13T10:17:52.864Z,14.48
2023-05-13T10:20:39.289Z,14.49
2023-05-13T10:23:25.053Z,14.71
2023-05-13T10:26:10.949Z,14.78
2023-05-13T10:28:58.184Z,14.81
2023-05-13T10:31:46.025Z,14.89
2023-05-13T10:34:33.770Z,14.79
2023-05-13T10:37:39.796Z,14.70
2023-05-13T10:40:41.693Z,14.52
2023-05-13T10:43:31.394Z,14.49
2023-05-13T10:46:19.621Z,14.45
2023-05-13T10:49:05.495Z,14.38
2023-05-13T10:51:51.453Z,14.24
2023-05-13T10:54:39.629Z,14.21
2023-05-13T10:58:24.703Z,14.23
2023-05-13T11:01:15.995Z,14.44
2023-05-13T11:04:04.088Z,14.70
2023-05-13T11:06:50.877Z,14.90
2023-05-13T11:09:38.339Z,14.98
2023-05-13T11:12:24.106Z,14.98
2023-05-13T11:15:22.376Z,15.09
2023-05-13T11:18:08.414Z,15.07
2023-05-13T11:20:54.356Z,15.04
2023-05-13T11:23:52.142Z,15.00
2023-05-13T11:26:51.334Z,14.99
2023-05-13T11:29:38.769Z,15.04
2023-05-13T11:32:53.886Z,15.36
2023-05-13T11:35:39.423Z,15.66
2023-05-13T11:38:25.303Z,15.98
2023-05-13T11:41:11.759Z,16.00
2023-05-13T11:43:59.642Z,15.95
2023-05-13T11:47:03.136Z,16.03
2023-05-13T11:49:48.424Z,15.97
2023-05-13T11:52:33.989Z,15.73
2023-05-13T11:55:31.187Z,15.51
2023-05-13T11:58:16.542Z,15.69
2023-05-13T12:01:02.354Z,15.86
2023-05-13T12:03:47.921Z,16.24
2023-05-13T12:06:33.556Z,16.52
2023-05-13T12:09:23.037Z,16.84
2023-05-13T12:12:08.419Z,17.00
2023-05-13T12:14:55.603Z,17.28
2023-05-13T12:17:41.258Z,17.40
2023-05-13T12:20:26.922Z,17.68
2023-05-13T12:23:13.045Z,17.81
2023-05-13T12:25:58.561Z,17.91
2023-05-13T12:28:44.150Z,17.96
2023-05-13T12:31:30.089Z,17.92
2023-05-13T12:34:30.688Z,18.14
2023-05-13T12:37:16.129Z,18.26
2023-05-13T12:40:11.905Z,18.51
2023-05-13T12:43:01.732Z,18.70
2023-05-13T12:45:52.251Z,18.81
2023-05-13T12:48:37.907Z,18.93
2023-05-13T12:51:23.889Z,18.99
2023-05-13T12:54:12.075Z,19.15
2023-05-13T12:56:57.505Z,19.31
2023-05-13T12:59:43.533Z,19.44
2023-05-13T13:02:29.037Z,19.46
2023-05-13T13:05:14.317Z,19.53
2023-05-13T13:08:01.448Z,19.54
2023-05-13T13:10:46.929Z,19.68
2023-05-13T13:13:32.579Z,19.76
2023-05-13T13:16:18.449Z,19.63
2023-05-13T13:19:03.942Z,19.63
2023-05-13T13:21:49.772Z,19.60
2023-05-13T13:24:35.635Z,19.66
2023-05-13T13:27:20.984Z,19.78
2023-05-13T13:30:07.942Z,19.91
2023-05-13T13:32:53.769Z,19.99
2023-05-13T13:35:39.317Z,20.00
2023-05-13T13:38:24.948Z,20.10
2023-05-13T13:41:10.293Z,20.19
2023-05-13T13:43:55.774Z,20.24
2023-05-13T13:46:41.214Z,20.27
2023-05-13T13:49:26.595Z,20.28
2023-05-13T13:52:12.174Z,20.28
2023-05-13T13:54:57.486Z,20.30
2023-05-13T13:57:42.755Z,20.39
2023-05-13T14:00:28.412Z,20.44
2023-05-13T14:03:14.130Z,20.39
2023-05-13T14:05:59.507Z,20.40
2023-05-13T14:08:44.905Z,20.42
2023-05-13T14:11:30.621Z,20.44
2023-05-13T14:14:16.054Z,20.55
2023-05-13T14:17:01.544Z,20.58
2023-05-13T14:19:46.897Z,20.45
2023-05-13T14:22:32.366Z,20.37
2023-05-13T14:25:17.760Z,20.40
2023-05-13T14:28:03.027Z,20.26
2023-05-13T14:30:48.381Z,20.25
2023-05-13T14:33:33.765Z,20.24
2023-05-13T14:36:20.767Z,20.09
2023-05-13T14:39:09.171Z,20.16
2023-05-13T14:41:54.707Z,20.06
2023-05-13T14:44:41.600Z,20.18
2023-05-13T14:47:27.043Z,20.18
2023-05-13T14:50:12.466Z,20.01
2023-05-13T14:52:58.148Z,19.99
2023-05-13T14:55:43.573Z,20.10
2023-05-13T14:58:29.917Z,20.00
2023-05-13T15:01:15.348Z,20.02
2023-05-13T15:04:00.520Z,20.08
2023-05-13T15:06:46.088Z,20.23
2023-05-13T15:09:31.696Z,20.29
2023-05-13T15:12:16.954Z,20.36
2023-05-13T15:15:02.378Z,20.42
2023-05-13T15:17:47.785Z,20.54
2023-05-13T15:20:33.293Z,20.54
2023-05-13T15:23:18.717Z,20.40
2023-05-13T15:26:04.491Z,20.21
2023-05-13T15:28:50.237Z,20.06
2023-05-13T15:31:35.776Z,19.93
2023-05-13T15:34:21.488Z,19.73
2023-05-13T15:37:06.691Z,19.88
2023-05-13T15:39:52.096Z,19.78
2023-05-13T15:42:37.763Z,19.75
2023-05-13T15:45:23.293Z,19.84
2023-05-13T15:48:09.064Z,19.81
2023-05-13T15:50:54.641Z,19.88
2023-05-13T15:53:40.489Z,19.89
2023-05-13T15:56:26.274Z,19.81
2023-05-13T15:59:11.549Z,19.88
2023-05-13T16:01:57.605Z,19.99
2023-05-13T16:04:43.049Z,20.08
2023-05-13T16:07:28.862Z,20.13
2023-05-13T16:10:15.441Z,20.06
2023-05-13T16:13:02.568Z,19.84
2023-05-13T16:15:48.082Z,19.56
2023-05-13T16:18:33.811Z,19.35
2023-05-13T16:21:20.847Z,19.09
2023-05-13T16:24:07.230Z,18.87
2023-05-13T16:26:52.906Z,18.68
2023-05-13T16:29:38.634Z,18.46
2023-05-13T16:32:25.036Z,18.17
2023-05-13T16:35:11.946Z,17.95
2023-05-13T16:37:57.390Z,17.87
2023-05-13T16:40:43.667Z,17.79
2023-05-13T16:43:29.151Z,17.79
2023-05-13T16:46:15.440Z,17.88
2023-05-13T16:49:02.980Z,17.89
2023-05-13T16:51:48.301Z,17.88
2023-05-13T16:54:34.053Z,17.74
2023-05-13T16:57:22.326Z,17.69
2023-05-13T17:00:08.465Z,17.85
2023-05-13T17:02:54.831Z,17.92
2023-05-13T17:05:40.668Z,17.97
2023-05-13T17:08:26.229Z,18.12
2023-05-13T17:11:16.294Z,18.29
2023-05-13T17:14:02.427Z,18.27
2023-05-13T17:16:47.999Z,18.13
2023-05-13T17:19:33.572Z,18.03
2023-05-13T17:22:18.857Z,17.93
2023-05-13T17:25:04.617Z,17.74
2023-05-13T17:27:50.131Z,17.40
2023-05-13T17:30:35.456Z,17.04
2023-05-13T17:33:21.734Z,16.59
2023-05-13T17:36:07.739Z,16.25
2023-05-13T17:38:53.089Z,16.05
2023-05-13T17:41:38.914Z,15.87
2023-05-13T17:44:24.217Z,15.80
2023-05-13T17:47:09.566Z,15.71
2023-05-13T17:49:54.945Z,15.67
2023-05-13T17:52:41.588Z,15.60
2023-05-13T17:55:27.283Z,15.54
2023-05-13T17:58:12.468Z,15.44
2023-05-13T18:01:03.854Z,15.34
2023-05-13T18:03:49.251Z,15.32
2023-05-13T18:06:34.529Z,15.30
2023-05-13T18:09:20.103Z,15.22
2023-05-13T18:12:06.057Z,15.15
2023-05-13T18:14:52.169Z,15.04
2023-05-13T18:17:37.742Z,14.93
2023-05-13T18:20:23.237Z,14.79
2023-05-13T18:23:08.978Z,14.69
2023-05-13T18:25:56.250Z,14.68
2023-05-13T18:28:45.178Z,14.62
2023-05-13T18:31:34.833Z,14.57
2023-05-13T18:34:20.570Z,14.48
2023-05-13T18:37:06.558Z,14.46
2023-05-13T18:39:52.027Z,14.39
2023-05-13T18:42:37.565Z,14.30
2023-05-13T18:45:23.010Z,14.19
2023-05-13T18:48:08.453Z,14.13
2023-05-13T18:50:53.738Z,14.03
2023-05-13T18:53:39.004Z,13.92
2023-05-13T18:56:24.364Z,13.81
2023-05-13T18:59:09.601Z,13.68
2023-05-13T19:01:55.295Z,13.60
2023-05-13T19:04:40.993Z,13.46
2023-05-13T19:07:26.879Z,13.43
2023-05-13T19:10:12.676Z,13.30
2023-05-13T19:12:57.892Z,13.14
2023-05-13T19:15:43.712Z,13.06
2023-05-13T19:18:29.317Z,12.96
2023-05-13T19:21:14.716Z,12.81
2023-05-13T19:24:02.022Z,12.73
2023-05-13T19:26:47.471Z,12.61
2023-05-13T19:29:32.761Z,12.49
2023-05-13T19:32:18.486Z,12.35
2023-05-13T19:35:04.371Z,12.23
2023-05-13T19:37:50.549Z,12.11
2023-05-13T19:40:36.110Z,12.04
2023-05-13T19:43:21.369Z,11.91
2023-05-13T19:46:06.815Z,11.84
2023-05-13T19:48:52.473Z,11.75
2023-05-13T19:51:38.180Z,11.71
2023-05-13T19:54:23.751Z,11.65
2023-05-13T19:57:08.999Z,11.57
2023-05-13T19:59:54.932Z,11.50
2023-05-13T20:02:40.855Z,11.40
2023-05-13T20:05:26.537Z,11.34
2023-05-13T20:08:12.277Z,11.25
2023-05-13T20:10:57.581Z,11.19
2023-05-13T20:13:42.981Z,11.11
2023-05-13T20:16:28.974Z,11.04
2023-05-13T20:19:14.402Z,10.99
2023-05-13T20:22:00.157Z,10.91
2023-05-13T20:24:49.016Z,10.87
2023-05-13T20:27:34.956Z,10.82
2023-05-13T20:30:21.916Z,10.76
2023-05-13T20:33:07.581Z,10.74
2023-05-13T20:35:53.619Z,10.71
2023-05-13T20:38:39.207Z,10.67
2023-05-13T20:41:24.855Z,10.65
2023-05-13T20:44:12.686Z,10.60
2023-05-13T20:46:58.054Z,10.56
2023-05-13T20:49:43.978Z,10.52
2023-05-13T20:52:29.480Z,10.48
2023-05-13T20:55:15.599Z,10.46
2023-05-13T20:58:01.279Z,10.44
2023-05-13T21:00:46.683Z,10.43
2023-05-13T21:03:33.076Z,10.39
2023-05-13T21:06:18.623Z,10.36
2023-05-13T21:09:04.376Z,10.34
2023-05-13T21:11:49.707Z,10.30
2023-05-13T21:14:35.092Z,10.25
2023-05-13T21:17:21.623Z,10.19
2023-05-13T21:20:08.199Z,10.15
2023-05-13T21:22:53.749Z,10.13
2023-05-13T21:25:39.344Z,10.09
2023-05-13T21:28:24.649Z,10.06
2023-05-13T21:31:10.081Z,10.03
2023-05-13T21:33:55.651Z,9.99
2023-05-13T21:36:40.859Z,9.94
2023-05-13T21:39:26.268Z,9.92
2023-05-13T21:42:11.552Z,9.90
2023-05-13T21:44:57.357Z,9.90
2023-05-13T21:47:42.867Z,9.90
2023-05-13T21:50:28.241Z,9.91
2023-05-13T21:53:13.511Z,9.92
2023-05-13T21:56:00.297Z,9.94
2023-05-13T21:58:46.087Z,9.90
2023-05-13T22:01:31.410Z,9.86
2023-05-13T22:04:16.618Z,9.84
2023-05-13T22:07:02.799Z,9.80
2023-05-13T22:09:50.345Z,9.76
2023-05-13T22:12:36.783Z,9.73
2023-05-13T22:15:22.134Z,9.68
2023-05-13T22:18:07.480Z,9.65
2023-05-13T22:20:53.144Z,9.61
2023-05-13T22:23:38.914Z,9.57
2023-05-13T22:26:24.397Z,9.53
2023-05-13T22:29:09.787Z,9.50
2023-05-13T22:31:57.552Z,9.45
2023-05-13T22:34:42.940Z,9.48
2023-05-13T22:37:28.306Z,9.50
2023-05-13T22:40:13.982Z,9.52
2023-05-13T22:42:59.494Z,9.50
2023-05-13T22:45:44.881Z,9.43
2023-05-13T22:48:30.149Z,9.43
2023-05-13T22:51:15.634Z,9.39
2023-05-13T22:54:00.919Z,9.34
2023-05-13T22:56:46.319Z,9.27
2023-05-13T22:59:31.630Z,9.20
2023-05-13T23:02:17.057Z,9.14
2023-05-13T23:05:02.813Z,9.09
2023-05-13T23:07:48.302Z,9.07
2023-05-13T23:10:33.703Z,9.07
2023-05-13T23:13:19.085Z,9.04
2023-05-13T23:16:04.767Z,9.11
2023-05-13T23:18:50.306Z,9.23
2023-05-13T23:21:36.405Z,9.36
2023-05-13T23:24:22.129Z,9.45
2023-05-13T23:27:08.884Z,9.47
2023-05-13T23:29:54.600Z,9.54
2023-05-13T23:32:40.152Z,9.52
2023-05-13T23:35:25.611Z,9.54
2023-05-13T23:38:10.839Z,9.55
2023-05-13T23:40:56.226Z,9.55
2023-05-13T23:43:41.531Z,9.51
2023-05-13T23:46:27.159Z,9.47
2023-05-13T23:49:12.687Z,9.47
2023-05-13T23:51:58.162Z,9.55
2023-05-13T23:54:43.351Z,9.72
2023-05-13T23:57:28.643Z,9.87
